sensor_id;sensor_type;location;lat;lon;timestamp;P1;durP1;ratioP1;P2;durP2;ratioP2
60006;SDS011;45863;50.336;3.536;2023-08-30T00:00:42;10.17;;;5.07;;
60006;SDS011;45863;50.336;3.536;2023-08-30T00:03:07;10.93;;;5.40;;
60006;SDS011;45863;50.336;3.536;2023-08-30T00:05:32;8.98;;;4.97;;
60006;SDS011;45863;50.336;3.536;2023-08-30T00:07:57;10.48;;;5.43;;
60006;SDS011;45863;50.336;3.536;2023-08-30T00:10:23;11.50;;;5.60;;
60006;SDS011;45863;50.336;3.536;2023-08-30T00:12:48;8.65;;;5.25;;
60006;SDS011;45863;50.336;3.536;2023-08-30T00:15:13;9.30;;;5.67;;
60006;SDS011;45863;50.336;3.536;2023-08-30T00:17:39;9.27;;;5.43;;
60006;SDS011;45863;50.336;3.536;2023-08-30T00:20:04;10.30;;;5.77;;
60006;SDS011;45863;50.336;3.536;2023-08-30T00:22:29;10.27;;;5.78;;
60006;SDS011;45863;50.336;3.536;2023-08-30T00:24:56;10.25;;;5.50;;
60006;SDS011;45863;50.336;3.536;2023-08-30T00:27:21;10.27;;;5.70;;
60006;SDS011;45863;50.336;3.536;2023-08-30T00:29:46;10.23;;;5.75;;
60006;SDS011;45863;50.336;3.536;2023-08-30T00:32:12;13.03;;;5.70;;
60006;SDS011;45863;50.336;3.536;2023-08-30T00:34:37;10.48;;;5.40;;
60006;SDS011;45863;50.336;3.536;2023-08-30T00:37:02;8.77;;;5.27;;
60006;SDS011;45863;50.336;3.536;2023-08-30T00:39:27;9.95;;;5.20;;
60006;SDS011;45863;50.336;3.536;2023-08-30T00:41:52;10.77;;;5.27;;
60006;SDS011;45863;50.336;3.536;2023-08-30T00:44:18;9.43;;;5.10;;
60006;SDS011;45863;50.336;3.536;2023-08-30T00:46:43;11.80;;;5.37;;
60006;SDS011;45863;50.336;3.536;2023-08-30T00:49:08;10.82;;;5.80;;
60006;SDS011;45863;50.336;3.536;2023-08-30T00:51:33;9.50;;;5.65;;
60006;SDS011;45863;50.336;3.536;2023-08-30T00:53:59;10.23;;;5.53;;
60006;SDS011;45863;50.336;3.536;2023-08-30T00:56:24;11.55;;;5.47;;
60006;SDS011;45863;50.336;3.536;2023-08-30T00:58:50;12.57;;;5.72;;
60006;SDS011;45863;50.336;3.536;2023-08-30T01:01:16;10.75;;;5.93;;
60006;SDS011;45863;50.336;3.536;2023-08-30T01:03:41;12.43;;;6.18;;
60006;SDS011;45863;50.336;3.536;2023-08-30T01:06:07;10.55;;;5.90;;
60006;SDS011;45863;50.336;3.536;2023-08-30T01:08:32;10.48;;;5.78;;
60006;SDS011;45863;50.336;3.536;2023-08-30T01:13:23;10.23;;;5.70;;
60006;SDS011;45863;50.336;3.536;2023-08-30T01:15:49;9.43;;;5.65;;
60006;SDS011;45863;50.336;3.536;2023-08-30T01:18:17;9.35;;;5.25;;
60006;SDS011;45863;50.336;3.536;2023-08-30T01:20:42;12.73;;;6.80;;
60006;SDS011;45863;50.336;3.536;2023-08-30T01:23:18;11.60;;;5.80;;
60006;SDS011;45863;50.336;3.536;2023-08-30T01:28:29;10.18;;;6.10;;
60006;SDS011;45863;50.336;3.536;2023-08-30T01:30:55;8.80;;;5.28;;
60006;SDS011;45863;50.336;3.536;2023-08-30T01:33:20;11.90;;;5.65;;
60006;SDS011;45863;50.336;3.536;2023-08-30T01:35:45;21.52;;;6.30;;
60006;SDS011;45863;50.336;3.536;2023-08-30T01:38:11;10.70;;;5.43;;
60006;SDS011;45863;50.336;3.536;2023-08-30T01:40:38;9.23;;;5.30;;
60006;SDS011;45863;50.336;3.536;2023-08-30T01:43:05;9.68;;;4.90;;
60006;SDS011;45863;50.336;3.536;2023-08-30T01:45:31;11.70;;;5.13;;
60006;SDS011;45863;50.336;3.536;2023-08-30T01:47:57;10.85;;;5.30;;
60006;SDS011;45863;50.336;3.536;2023-08-30T01:50:22;12.73;;;5.53;;
60006;SDS011;45863;50.336;3.536;2023-08-30T01:52:48;11.55;;;5.55;;
60006;SDS011;45863;50.336;3.536;2023-08-30T01:55:13;14.45;;;6.00;;
60006;SDS011;45863;50.336;3.536;2023-08-30T01:57:39;9.77;;;4.70;;
60006;SDS011;45863;50.336;3.536;2023-08-30T02:00:04;10.07;;;5.25;;
60006;SDS011;45863;50.336;3.536;2023-08-30T02:02:30;10.00;;;5.25;;
60006;SDS011;45863;50.336;3.536;2023-08-30T02:04:55;10.52;;;4.90;;
60006;SDS011;45863;50.336;3.536;2023-08-30T02:07:23;10.63;;;5.07;;
60006;SDS011;45863;50.336;3.536;2023-08-30T02:09:50;12.07;;;4.75;;
60006;SDS011;45863;50.336;3.536;2023-08-30T02:12:19;9.02;;;5.18;;
60006;SDS011;45863;50.336;3.536;2023-08-30T02:14:47;13.07;;;6.18;;
60006;SDS011;45863;50.336;3.536;2023-08-30T02:17:17;14.25;;;6.38;;
60006;SDS011;45863;50.336;3.536;2023-08-30T02:19:42;11.82;;;4.93;;
60006;SDS011;45863;50.336;3.536;2023-08-30T02:22:08;10.10;;;5.20;;
60006;SDS011;45863;50.336;3.536;2023-08-30T02:24:33;12.57;;;5.45;;
60006;SDS011;45863;50.336;3.536;2023-08-30T02:26:58;10.67;;;5.50;;
60006;SDS011;45863;50.336;3.536;2023-08-30T02:29:24;10.32;;;5.53;;
60006;SDS011;45863;50.336;3.536;2023-08-30T02:31:49;10.85;;;6.13;;
60006;SDS011;45863;50.336;3.536;2023-08-30T02:34:14;12.65;;;6.25;;
60006;SDS011;45863;50.336;3.536;2023-08-30T02:36:39;13.77;;;5.53;;
60006;SDS011;45863;50.336;3.536;2023-08-30T02:39:05;9.55;;;5.40;;
60006;SDS011;45863;50.336;3.536;2023-08-30T02:41:30;9.35;;;5.93;;
60006;SDS011;45863;50.336;3.536;2023-08-30T02:43:55;11.00;;;5.18;;
60006;SDS011;45863;50.336;3.536;2023-08-30T02:46:21;12.53;;;5.80;;
60006;SDS011;45863;50.336;3.536;2023-08-30T02:48:46;9.27;;;5.50;;
60006;SDS011;45863;50.336;3.536;2023-08-30T02:51:11;9.57;;;4.97;;
60006;SDS011;45863;50.336;3.536;2023-08-30T02:53:36;9.73;;;5.10;;
60006;SDS011;45863;50.336;3.536;2023-08-30T02:56:02;10.73;;;5.25;;
60006;SDS011;45863;50.336;3.536;2023-08-30T02:58:27;10.07;;;5.25;;
60006;SDS011;45863;50.336;3.536;2023-08-30T03:00:52;12.10;;;5.18;;
60006;SDS011;45863;50.336;3.536;2023-08-30T03:03:17;9.85;;;4.30;;
60006;SDS011;45863;50.336;3.536;2023-08-30T03:05:43;8.88;;;5.05;;
60006;SDS011;45863;50.336;3.536;2023-08-30T03:08:08;12.17;;;5.20;;
60006;SDS011;45863;50.336;3.536;2023-08-30T03:10:33;16.35;;;6.38;;
60006;SDS011;45863;50.336;3.536;2023-08-30T03:12:58;12.45;;;6.43;;
60006;SDS011;45863;50.336;3.536;2023-08-30T03:15:24;13.32;;;7.00;;
60006;SDS011;45863;50.336;3.536;2023-08-30T03:17:49;12.97;;;7.10;;
60006;SDS011;45863;50.336;3.536;2023-08-30T03:20:14;12.73;;;7.13;;
60006;SDS011;45863;50.336;3.536;2023-08-30T03:22:39;15.23;;;7.78;;
60006;SDS011;45863;50.336;3.536;2023-08-30T03:25:05;14.07;;;8.20;;
60006;SDS011;45863;50.336;3.536;2023-08-30T03:27:32;13.35;;;7.30;;
60006;SDS011;45863;50.336;3.536;2023-08-30T03:29:57;17.50;;;8.15;;
60006;SDS011;45863;50.336;3.536;2023-08-30T03:32:22;14.95;;;8.50;;
60006;SDS011;45863;50.336;3.536;2023-08-30T03:34:48;15.67;;;8.27;;
60006;SDS011;45863;50.336;3.536;2023-08-30T03:37:16;16.80;;;9.15;;
60006;SDS011;45863;50.336;3.536;2023-08-30T03:39:42;15.80;;;9.10;;
60006;SDS011;45863;50.336;3.536;2023-08-30T03:42:07;18.05;;;9.30;;
60006;SDS011;45863;50.336;3.536;2023-08-30T03:44:32;16.95;;;9.57;;
60006;SDS011;45863;50.336;3.536;2023-08-30T03:46:58;18.08;;;9.13;;
60006;SDS011;45863;50.336;3.536;2023-08-30T03:49:23;19.33;;;10.18;;
60006;SDS011;45863;50.336;3.536;2023-08-30T03:51:48;17.27;;;10.13;;
60006;SDS011;45863;50.336;3.536;2023-08-30T03:54:13;16.77;;;9.70;;
60006;SDS011;45863;50.336;3.536;2023-08-30T03:56:41;24.33;;;11.10;;
60006;SDS011;45863;50.336;3.536;2023-08-30T03:59:06;16.77;;;10.50;;
60006;SDS011;45863;50.336;3.536;2023-08-30T04:01:32;19.65;;;10.35;;
60006;SDS011;45863;50.336;3.536;2023-08-30T04:03:58;20.60;;;11.60;;
60006;SDS011;45863;50.336;3.536;2023-08-30T04:06:23;21.35;;;11.15;;
60006;SDS011;45863;50.336;3.536;2023-08-30T04:08:48;19.55;;;10.98;;
60006;SDS011;45863;50.336;3.536;2023-08-30T04:11:13;17.73;;;10.15;;
60006;SDS011;45863;50.336;3.536;2023-08-30T04:13:38;23.65;;;10.93;;
60006;SDS011;45863;50.336;3.536;2023-08-30T04:16:04;18.83;;;11.10;;
60006;SDS011;45863;50.336;3.536;2023-08-30T04:18:29;16.30;;;10.55;;
60006;SDS011;45863;50.336;3.536;2023-08-30T04:20:54;19.10;;;10.55;;
60006;SDS011;45863;50.336;3.536;2023-08-30T04:23:19;24.83;;;11.20;;
60006;SDS011;45863;50.336;3.536;2023-08-30T04:25:45;17.47;;;10.33;;
60006;SDS011;45863;50.336;3.536;2023-08-30T04:28:10;20.83;;;10.75;;
60006;SDS011;45863;50.336;3.536;2023-08-30T04:30:36;20.50;;;9.93;;
60006;SDS011;45863;50.336;3.536;2023-08-30T04:33:02;15.52;;;9.88;;
60006;SDS011;45863;50.336;3.536;2023-08-30T04:35:28;17.42;;;9.40;;
60006;SDS011;45863;50.336;3.536;2023-08-30T04:37:53;18.83;;;9.82;;
60006;SDS011;45863;50.336;3.536;2023-08-30T04:40:18;16.63;;;9.90;;
60006;SDS011;45863;50.336;3.536;2023-08-30T04:42:44;18.58;;;10.55;;
60006;SDS011;45863;50.336;3.536;2023-08-30T04:45:09;19.02;;;10.30;;
60006;SDS011;45863;50.336;3.536;2023-08-30T04:47:35;17.58;;;10.57;;
60006;SDS011;45863;50.336;3.536;2023-08-30T04:50:00;15.98;;;9.02;;
60006;SDS011;45863;50.336;3.536;2023-08-30T04:52:25;19.83;;;9.18;;
60006;SDS011;45863;50.336;3.536;2023-08-30T04:54:51;14.00;;;8.57;;
60006;SDS011;45863;50.336;3.536;2023-08-30T04:57:16;16.00;;;8.77;;
60006;SDS011;45863;50.336;3.536;2023-08-30T04:59:42;15.15;;;8.35;;
60006;SDS011;45863;50.336;3.536;2023-08-30T05:02:07;15.68;;;8.68;;
60006;SDS011;45863;50.336;3.536;2023-08-30T05:04:33;15.40;;;8.20;;
60006;SDS011;45863;50.336;3.536;2023-08-30T05:06:58;15.60;;;7.85;;
60006;SDS011;45863;50.336;3.536;2023-08-30T05:09:23;13.60;;;7.27;;
60006;SDS011;45863;50.336;3.536;2023-08-30T05:11:50;15.70;;;8.70;;
60006;SDS011;45863;50.336;3.536;2023-08-30T05:14:15;16.75;;;8.05;;
60006;SDS011;45863;50.336;3.536;2023-08-30T05:16:40;11.13;;;7.60;;
60006;SDS011;45863;50.336;3.536;2023-08-30T05:19:06;13.17;;;7.40;;
60006;SDS011;45863;50.336;3.536;2023-08-30T05:21:31;15.90;;;7.25;;
60006;SDS011;45863;50.336;3.536;2023-08-30T05:23:56;17.17;;;7.03;;
60006;SDS011;45863;50.336;3.536;2023-08-30T05:26:21;13.73;;;7.13;;
60006;SDS011;45863;50.336;3.536;2023-08-30T05:28:46;16.10;;;7.25;;
60006;SDS011;45863;50.336;3.536;2023-08-30T05:31:12;12.35;;;6.82;;
60006;SDS011;45863;50.336;3.536;2023-08-30T05:33:37;12.70;;;7.07;;
60006;SDS011;45863;50.336;3.536;2023-08-30T05:36:02;14.43;;;7.00;;
60006;SDS011;45863;50.336;3.536;2023-08-30T05:38:27;11.00;;;6.32;;
60006;SDS011;45863;50.336;3.536;2023-08-30T05:40:53;11.85;;;6.40;;
60006;SDS011;45863;50.336;3.536;2023-08-30T05:43:18;15.10;;;6.80;;
60006;SDS011;45863;50.336;3.536;2023-08-30T05:45:43;15.57;;;6.70;;
60006;SDS011;45863;50.336;3.536;2023-08-30T05:48:08;11.13;;;6.63;;
60006;SDS011;45863;50.336;3.536;2023-08-30T05:50:34;11.37;;;6.17;;
60006;SDS011;45863;50.336;3.536;2023-08-30T05:52:59;11.93;;;6.57;;
60006;SDS011;45863;50.336;3.536;2023-08-30T05:55:24;13.77;;;6.88;;
60006;SDS011;45863;50.336;3.536;2023-08-30T05:57:49;12.45;;;6.80;;
60006;SDS011;45863;50.336;3.536;2023-08-30T06:00:15;10.40;;;6.53;;
60006;SDS011;45863;50.336;3.536;2023-08-30T06:02:40;18.00;;;8.20;;
60006;SDS011;45863;50.336;3.536;2023-08-30T06:05:06;14.63;;;8.60;;
60006;SDS011;45863;50.336;3.536;2023-08-30T06:07:31;13.65;;;7.47;;
60006;SDS011;45863;50.336;3.536;2023-08-30T06:09:56;18.50;;;8.23;;
60006;SDS011;45863;50.336;3.536;2023-08-30T06:12:22;18.63;;;9.10;;
60006;SDS011;45863;50.336;3.536;2023-08-30T06:14:47;18.05;;;9.27;;
60006;SDS011;45863;50.336;3.536;2023-08-30T06:17:17;21.23;;;10.40;;
60006;SDS011;45863;50.336;3.536;2023-08-30T06:19:42;18.77;;;9.95;;
60006;SDS011;45863;50.336;3.536;2023-08-30T06:22:07;18.93;;;10.43;;
60006;SDS011;45863;50.336;3.536;2023-08-30T06:24:33;21.13;;;10.52;;
60006;SDS011;45863;50.336;3.536;2023-08-30T06:26:58;21.67;;;11.33;;
60006;SDS011;45863;50.336;3.536;2023-08-30T06:29:24;23.25;;;12.40;;
60006;SDS011;45863;50.336;3.536;2023-08-30T06:31:50;21.45;;;11.13;;
60006;SDS011;45863;50.336;3.536;2023-08-30T06:34:15;26.90;;;13.73;;
60006;SDS011;45863;50.336;3.536;2023-08-30T06:36:40;24.33;;;13.52;;
60006;SDS011;45863;50.336;3.536;2023-08-30T06:39:06;25.80;;;12.97;;
60006;SDS011;45863;50.336;3.536;2023-08-30T06:41:31;25.52;;;14.15;;
60006;SDS011;45863;50.336;3.536;2023-08-30T06:43:56;30.60;;;14.48;;
60006;SDS011;45863;50.336;3.536;2023-08-30T06:46:22;28.25;;;15.18;;
60006;SDS011;45863;50.336;3.536;2023-08-30T06:48:47;24.90;;;13.93;;
60006;SDS011;45863;50.336;3.536;2023-08-30T06:51:13;25.50;;;13.75;;
60006;SDS011;45863;50.336;3.536;2023-08-30T06:53:38;28.13;;;14.03;;
60006;SDS011;45863;50.336;3.536;2023-08-30T06:56:03;27.75;;;15.40;;
60006;SDS011;45863;50.336;3.536;2023-08-30T06:58:29;23.30;;;13.20;;
60006;SDS011;45863;50.336;3.536;2023-08-30T07:00:56;26.83;;;14.85;;
60006;SDS011;45863;50.336;3.536;2023-08-30T07:03:21;27.30;;;15.55;;
60006;SDS011;45863;50.336;3.536;2023-08-30T07:05:47;26.95;;;14.77;;
60006;SDS011;45863;50.336;3.536;2023-08-30T07:08:13;26.40;;;13.98;;
60006;SDS011;45863;50.336;3.536;2023-08-30T07:10:39;26.42;;;13.68;;
60006;SDS011;45863;50.336;3.536;2023-08-30T07:13:04;26.88;;;13.27;;
60006;SDS011;45863;50.336;3.536;2023-08-30T07:15:35;24.08;;;13.45;;
60006;SDS011;45863;50.336;3.536;2023-08-30T07:18:00;25.37;;;14.70;;
60006;SDS011;45863;50.336;3.536;2023-08-30T07:20:25;30.23;;;13.70;;
60006;SDS011;45863;50.336;3.536;2023-08-30T07:22:50;27.53;;;14.17;;
60006;SDS011;45863;50.336;3.536;2023-08-30T07:25:16;29.33;;;15.77;;
60006;SDS011;45863;50.336;3.536;2023-08-30T07:27:41;24.48;;;14.35;;
60006;SDS011;45863;50.336;3.536;2023-08-30T07:30:06;25.40;;;13.90;;
60006;SDS011;45863;50.336;3.536;2023-08-30T07:32:32;22.02;;;13.23;;
60006;SDS011;45863;50.336;3.536;2023-08-30T07:34:57;22.23;;;12.65;;
60006;SDS011;45863;50.336;3.536;2023-08-30T07:37:22;25.13;;;12.80;;
60006;SDS011;45863;50.336;3.536;2023-08-30T07:39:48;23.67;;;12.80;;
60006;SDS011;45863;50.336;3.536;2023-08-30T07:42:13;20.20;;;11.47;;
60006;SDS011;45863;50.336;3.536;2023-08-30T07:44:39;18.38;;;11.60;;
60006;SDS011;45863;50.336;3.536;2023-08-30T07:47:04;21.97;;;11.83;;
60006;SDS011;45863;50.336;3.536;2023-08-30T07:49:30;23.73;;;12.18;;
60006;SDS011;45863;50.336;3.536;2023-08-30T07:51:55;20.50;;;11.80;;
60006;SDS011;45863;50.336;3.536;2023-08-30T07:54:20;24.05;;;12.98;;
60006;SDS011;45863;50.336;3.536;2023-08-30T07:56:45;21.25;;;12.60;;
60006;SDS011;45863;50.336;3.536;2023-08-30T07:59:10;23.50;;;12.98;;
60006;SDS011;45863;50.336;3.536;2023-08-30T08:01:36;22.17;;;12.33;;
60006;SDS011;45863;50.336;3.536;2023-08-30T08:04:01;23.27;;;13.20;;
60006;SDS011;45863;50.336;3.536;2023-08-30T08:06:26;25.23;;;12.93;;
60006;SDS011;45863;50.336;3.536;2023-08-30T08:08:51;21.38;;;12.40;;
60006;SDS011;45863;50.336;3.536;2023-08-30T08:11:17;25.33;;;13.00;;
60006;SDS011;45863;50.336;3.536;2023-08-30T08:13:42;20.63;;;10.35;;
60006;SDS011;45863;50.336;3.536;2023-08-30T08:16:07;23.73;;;12.50;;
60006;SDS011;45863;50.336;3.536;2023-08-30T08:18:32;21.33;;;11.75;;
60006;SDS011;45863;50.336;3.536;2023-08-30T08:20:58;21.52;;;11.85;;
60006;SDS011;45863;50.336;3.536;2023-08-30T08:23:23;19.73;;;10.32;;
60006;SDS011;45863;50.336;3.536;2023-08-30T08:25:48;20.55;;;10.13;;
60006;SDS011;45863;50.336;3.536;2023-08-30T08:28:13;22.85;;;11.07;;
60006;SDS011;45863;50.336;3.536;2023-08-30T08:30:39;20.70;;;10.05;;
60006;SDS011;45863;50.336;3.536;2023-08-30T08:33:04;15.82;;;8.02;;
60006;SDS011;45863;50.336;3.536;2023-08-30T08:35:29;16.80;;;7.83;;
60006;SDS011;45863;50.336;3.536;2023-08-30T08:37:54;18.83;;;8.98;;
60006;SDS011;45863;50.336;3.536;2023-08-30T08:40:20;13.95;;;7.82;;
60006;SDS011;45863;50.336;3.536;2023-08-30T08:42:45;13.15;;;6.93;;
60006;SDS011;45863;50.336;3.536;2023-08-30T08:45:10;14.57;;;6.57;;
60006;SDS011;45863;50.336;3.536;2023-08-30T08:47:38;12.50;;;7.45;;
60006;SDS011;45863;50.336;3.536;2023-08-30T08:50:04;12.85;;;7.70;;
60006;SDS011;45863;50.336;3.536;2023-08-30T08:52:29;13.45;;;7.40;;
60006;SDS011;45863;50.336;3.536;2023-08-30T08:54:55;12.30;;;7.32;;
60006;SDS011;45863;50.336;3.536;2023-08-30T08:57:20;14.70;;;7.97;;
60006;SDS011;45863;50.336;3.536;2023-08-30T08:59:46;12.30;;;6.70;;
60006;SDS011;45863;50.336;3.536;2023-08-30T09:02:14;13.30;;;7.20;;
60006;SDS011;45863;50.336;3.536;2023-08-30T09:04:39;12.65;;;6.75;;
60006;SDS011;45863;50.336;3.536;2023-08-30T09:07:05;12.45;;;7.57;;
60006;SDS011;45863;50.336;3.536;2023-08-30T09:09:30;14.95;;;7.22;;
60006;SDS011;45863;50.336;3.536;2023-08-30T09:11:56;12.50;;;6.80;;
60006;SDS011;45863;50.336;3.536;2023-08-30T09:14:21;11.48;;;7.35;;
60006;SDS011;45863;50.336;3.536;2023-08-30T09:19:21;10.00;;;5.30;;
60006;SDS011;45863;50.336;3.536;2023-08-30T09:21:50;10.75;;;5.53;;
60006;SDS011;45863;50.336;3.536;2023-08-30T09:24:15;12.50;;;5.88;;
60006;SDS011;45863;50.336;3.536;2023-08-30T09:26:46;9.43;;;4.90;;
60006;SDS011;45863;50.336;3.536;2023-08-30T09:29:11;9.45;;;5.97;;
60006;SDS011;45863;50.336;3.536;2023-08-30T09:31:37;13.70;;;6.10;;
60006;SDS011;45863;50.336;3.536;2023-08-30T09:34:03;11.23;;;6.75;;
60006;SDS011;45863;50.336;3.536;2023-08-30T09:36:35;15.88;;;8.10;;
60006;SDS011;45863;50.336;3.536;2023-08-30T09:39:07;16.42;;;9.65;;
60006;SDS011;45863;50.336;3.536;2023-08-30T09:41:32;23.02;;;12.05;;
60006;SDS011;45863;50.336;3.536;2023-08-30T09:43:58;20.42;;;11.35;;
60006;SDS011;45863;50.336;3.536;2023-08-30T09:46:24;20.58;;;13.82;;
60006;SDS011;45863;50.336;3.536;2023-08-30T09:48:49;26.80;;;14.40;;
60006;SDS011;45863;50.336;3.536;2023-08-30T09:51:15;29.95;;;16.00;;
60006;SDS011;45863;50.336;3.536;2023-08-30T09:53:42;26.50;;;17.52;;
60006;SDS011;45863;50.336;3.536;2023-08-30T09:56:10;25.45;;;17.85;;
60006;SDS011;45863;50.336;3.536;2023-08-30T09:58:36;28.23;;;20.75;;
60006;SDS011;45863;50.336;3.536;2023-08-30T10:01:03;27.52;;;19.67;;
60006;SDS011;45863;50.336;3.536;2023-08-30T10:03:30;25.20;;;19.10;;
60006;SDS011;45863;50.336;3.536;2023-08-30T10:05:55;26.30;;;17.33;;
60006;SDS011;45863;50.336;3.536;2023-08-30T10:08:21;21.23;;;16.60;;
60006;SDS011;45863;50.336;3.536;2023-08-30T10:10:46;21.55;;;15.35;;
60006;SDS011;45863;50.336;3.536;2023-08-30T10:13:12;18.52;;;14.75;;
60006;SDS011;45863;50.336;3.536;2023-08-30T10:15:40;20.15;;;13.57;;
60006;SDS011;45863;50.336;3.536;2023-08-30T10:18:06;20.10;;;13.80;;
60006;SDS011;45863;50.336;3.536;2023-08-30T10:20:32;21.77;;;12.07;;
60006;SDS011;45863;50.336;3.536;2023-08-30T10:22:57;20.50;;;11.95;;
60006;SDS011;45863;50.336;3.536;2023-08-30T10:25:24;16.83;;;9.93;;
60006;SDS011;45863;50.336;3.536;2023-08-30T10:27:51;15.25;;;10.50;;
60006;SDS011;45863;50.336;3.536;2023-08-30T10:30:17;17.48;;;9.27;;
60006;SDS011;45863;50.336;3.536;2023-08-30T10:32:43;16.67;;;8.93;;
60006;SDS011;45863;50.336;3.536;2023-08-30T10:35:12;18.02;;;9.40;;
60006;SDS011;45863;50.336;3.536;2023-08-30T10:37:41;20.92;;;9.90;;
60006;SDS011;45863;50.336;3.536;2023-08-30T10:40:07;19.33;;;9.18;;
60006;SDS011;45863;50.336;3.536;2023-08-30T10:42:32;16.73;;;9.63;;
60006;SDS011;45863;50.336;3.536;2023-08-30T10:45:01;19.42;;;9.77;;
60006;SDS011;45863;50.336;3.536;2023-08-30T10:47:28;15.83;;;8.87;;
60006;SDS011;45863;50.336;3.536;2023-08-30T10:50:15;16.52;;;9.85;;
60006;SDS011;45863;50.336;3.536;2023-08-30T10:52:39;14.07;;;8.55;;
60006;SDS011;45863;50.336;3.536;2023-08-30T10:55:11;16.05;;;6.80;;
60006;SDS011;45863;50.336;3.536;2023-08-30T10:57:37;12.43;;;6.55;;
60006;SDS011;45863;50.336;3.536;2023-08-30T11:02:38;14.25;;;6.85;;
60006;SDS011;45863;50.336;3.536;2023-08-30T11:05:08;17.35;;;5.65;;
60006;SDS011;45863;50.336;3.536;2023-08-30T11:07:33;11.88;;;5.00;;
60006;SDS011;45863;50.336;3.536;2023-08-30T11:09:58;12.88;;;3.97;;
60006;SDS011;45863;50.336;3.536;2023-08-30T11:12:24;10.73;;;4.17;;
60006;SDS011;45863;50.336;3.536;2023-08-30T11:14:52;9.98;;;4.18;;
60006;SDS011;45863;50.336;3.536;2023-08-30T11:17:18;9.57;;;3.70;;
60006;SDS011;45863;50.336;3.536;2023-08-30T11:19:43;11.55;;;4.40;;
60006;SDS011;45863;50.336;3.536;2023-08-30T11:22:09;11.52;;;4.60;;
60006;SDS011;45863;50.336;3.536;2023-08-30T11:24:34;14.70;;;4.72;;
60006;SDS011;45863;50.336;3.536;2023-08-30T11:27:00;12.80;;;4.10;;
60006;SDS011;45863;50.336;3.536;2023-08-30T11:29:26;13.13;;;4.65;;
60006;SDS011;45863;50.336;3.536;2023-08-30T11:31:51;10.02;;;3.55;;
60006;SDS011;45863;50.336;3.536;2023-08-30T11:34:19;9.80;;;3.80;;
60006;SDS011;45863;50.336;3.536;2023-08-30T11:36:44;8.98;;;3.15;;
60006;SDS011;45863;50.336;3.536;2023-08-30T11:39:12;9.63;;;3.20;;
60006;SDS011;45863;50.336;3.536;2023-08-30T11:41:38;11.85;;;3.13;;
60006;SDS011;45863;50.336;3.536;2023-08-30T11:44:04;8.45;;;2.90;;
60006;SDS011;45863;50.336;3.536;2023-08-30T11:46:29;10.63;;;2.80;;
60006;SDS011;45863;50.336;3.536;2023-08-30T11:48:55;10.30;;;2.63;;
60006;SDS011;45863;50.336;3.536;2023-08-30T11:51:20;9.50;;;3.47;;
60006;SDS011;45863;50.336;3.536;2023-08-30T11:53:46;7.82;;;3.08;;
60006;SDS011;45863;50.336;3.536;2023-08-30T11:56:11;13.25;;;2.95;;
60006;SDS011;45863;50.336;3.536;2023-08-30T11:58:37;11.50;;;3.17;;
60006;SDS011;45863;50.336;3.536;2023-08-30T12:01:03;10.40;;;3.17;;
60006;SDS011;45863;50.336;3.536;2023-08-30T12:03:28;10.18;;;3.50;;
60006;SDS011;45863;50.336;3.536;2023-08-30T12:05:54;8.07;;;3.15;;
60006;SDS011;45863;50.336;3.536;2023-08-30T12:10:47;9.98;;;2.80;;
60006;SDS011;45863;50.336;3.536;2023-08-30T12:13:25;9.13;;;3.10;;
60006;SDS011;45863;50.336;3.536;2023-08-30T12:15:54;12.52;;;3.08;;
60006;SDS011;45863;50.336;3.536;2023-08-30T12:18:23;8.02;;;3.20;;
60006;SDS011;45863;50.336;3.536;2023-08-30T12:20:55;12.27;;;3.85;;
60006;SDS011;45863;50.336;3.536;2023-08-30T12:23:21;9.40;;;2.97;;
60006;SDS011;45863;50.336;3.536;2023-08-30T12:25:56;10.57;;;3.35;;
60006;SDS011;45863;50.336;3.536;2023-08-30T12:28:21;9.50;;;2.70;;
60006;SDS011;45863;50.336;3.536;2023-08-30T12:30:46;8.70;;;3.27;;
60006;SDS011;45863;50.336;3.536;2023-08-30T12:33:12;10.20;;;2.73;;
60006;SDS011;45863;50.336;3.536;2023-08-30T12:35:40;12.02;;;3.03;;
60006;SDS011;45863;50.336;3.536;2023-08-30T12:38:06;9.07;;;2.83;;
60006;SDS011;45863;50.336;3.536;2023-08-30T12:40:31;10.47;;;3.13;;
60006;SDS011;45863;50.336;3.536;2023-08-30T12:42:56;10.73;;;2.95;;
60006;SDS011;45863;50.336;3.536;2023-08-30T12:45:21;12.43;;;3.13;;
60006;SDS011;45863;50.336;3.536;2023-08-30T12:47:47;10.23;;;2.57;;
60006;SDS011;45863;50.336;3.536;2023-08-30T12:50:12;10.23;;;2.43;;
60006;SDS011;45863;50.336;3.536;2023-08-30T12:52:37;7.25;;;2.28;;
60006;SDS011;45863;50.336;3.536;2023-08-30T12:55:02;10.07;;;2.40;;
60006;SDS011;45863;50.336;3.536;2023-08-30T12:57:28;9.00;;;2.85;;
60006;SDS011;45863;50.336;3.536;2023-08-30T12:59:54;9.27;;;2.93;;
60006;SDS011;45863;50.336;3.536;2023-08-30T13:02:19;8.43;;;2.60;;
60006;SDS011;45863;50.336;3.536;2023-08-30T13:04:44;7.05;;;2.50;;
60006;SDS011;45863;50.336;3.536;2023-08-30T13:07:09;7.85;;;2.20;;
60006;SDS011;45863;50.336;3.536;2023-08-30T13:09:34;6.47;;;2.50;;
60006;SDS011;45863;50.336;3.536;2023-08-30T13:12:00;9.43;;;2.70;;
60006;SDS011;45863;50.336;3.536;2023-08-30T13:14:25;6.67;;;2.97;;
60006;SDS011;45863;50.336;3.536;2023-08-30T13:16:50;6.95;;;3.22;;
60006;SDS011;45863;50.336;3.536;2023-08-30T13:19:15;7.50;;;2.97;;
60006;SDS011;45863;50.336;3.536;2023-08-30T13:21:41;7.07;;;3.10;;
60006;SDS011;45863;50.336;3.536;2023-08-30T13:24:07;6.68;;;2.45;;
60006;SDS011;45863;50.336;3.536;2023-08-30T13:26:33;8.15;;;2.58;;
60006;SDS011;45863;50.336;3.536;2023-08-30T13:28:58;9.93;;;2.90;;
60006;SDS011;45863;50.336;3.536;2023-08-30T13:31:24;5.65;;;2.60;;
60006;SDS011;45863;50.336;3.536;2023-08-30T13:33:49;6.43;;;2.67;;
60006;SDS011;45863;50.336;3.536;2023-08-30T13:36:14;6.47;;;2.83;;
60006;SDS011;45863;50.336;3.536;2023-08-30T13:38:39;5.57;;;2.33;;
60006;SDS011;45863;50.336;3.536;2023-08-30T13:41:04;7.65;;;2.90;;
60006;SDS011;45863;50.336;3.536;2023-08-30T13:43:30;8.50;;;3.33;;
60006;SDS011;45863;50.336;3.536;2023-08-30T13:45:59;6.20;;;2.53;;
60006;SDS011;45863;50.336;3.536;2023-08-30T13:48:24;6.35;;;2.25;;
60006;SDS011;45863;50.336;3.536;2023-08-30T13:50:50;6.97;;;2.25;;
60006;SDS011;45863;50.336;3.536;2023-08-30T13:53:15;8.15;;;2.17;;
60006;SDS011;45863;50.336;3.536;2023-08-30T13:55:40;9.63;;;2.50;;
60006;SDS011;45863;50.336;3.536;2023-08-30T13:58:09;7.05;;;2.08;;
60006;SDS011;45863;50.336;3.536;2023-08-30T14:00:34;6.30;;;1.80;;
60006;SDS011;45863;50.336;3.536;2023-08-30T14:02:59;5.07;;;1.60;;
60006;SDS011;45863;50.336;3.536;2023-08-30T14:05:25;6.90;;;1.83;;
60006;SDS011;45863;50.336;3.536;2023-08-30T14:07:50;7.72;;;1.85;;
60006;SDS011;45863;50.336;3.536;2023-08-30T14:10:16;6.93;;;1.67;;
60006;SDS011;45863;50.336;3.536;2023-08-30T14:12:43;5.10;;;1.67;;
60006;SDS011;45863;50.336;3.536;2023-08-30T14:15:08;5.10;;;1.80;;
60006;SDS011;45863;50.336;3.536;2023-08-30T14:17:33;6.28;;;1.80;;
60006;SDS011;45863;50.336;3.536;2023-08-30T14:19:59;10.67;;;1.87;;
60006;SDS011;45863;50.336;3.536;2023-08-30T14:22:24;5.75;;;1.95;;
60006;SDS011;45863;50.336;3.536;2023-08-30T14:24:49;8.83;;;2.27;;
60006;SDS011;45863;50.336;3.536;2023-08-30T14:27:14;8.67;;;1.90;;
60006;SDS011;45863;50.336;3.536;2023-08-30T14:29:39;4.93;;;1.80;;
60006;SDS011;45863;50.336;3.536;2023-08-30T14:32:05;6.37;;;1.90;;
60006;SDS011;45863;50.336;3.536;2023-08-30T14:34:30;4.97;;;1.58;;
60006;SDS011;45863;50.336;3.536;2023-08-30T14:36:55;7.60;;;2.22;;